sensor_id;sensor_type;location;lat;lon;timestamp;temperature;humidity
3488;DHT22;38546;48.170;11.724;2022-09-12T00:02:00;12.00;99.90
3488;DHT22;38546;48.170;11.724;2022-09-12T00:04:50;11.90;99.90
3488;DHT22;38546;48.170;11.724;2022-09-12T00:07:39;11.90;99.90
3488;DHT22;38546;48.170;11.724;2022-09-12T00:10:29;11.90;99.90
3488;DHT22;38546;48.170;11.724;2022-09-12T00:13:18;11.90;99.90
3488;DHT22;38546;48.170;11.724;2022-09-12T00:16:14;11.90;99.90
3488;DHT22;38546;48.170;11.724;2022-09-12T00:19:06;11.80;99.90
3488;DHT22;38546;48.170;11.724;2022-09-12T00:21:56;11.80;99.90
3488;DHT22;38546;48.170;11.724;2022-09-12T00:24:46;11.90;99.90
3488;DHT22;38546;48.170;11.724;2022-09-12T00:27:35;11.80;99.90
3488;DHT22;38546;48.170;11.724;2022-09-12T00:30:24;11.80;99.90
3488;DHT22;38546;48.170;11.724;2022-09-12T00:33:16;11.80;99.90
3488;DHT22;38546;48.170;11.724;2022-09-12T00:36:11;11.70;99.90
3488;DHT22;38546;48.170;11.724;2022-09-12T00:39:04;11.70;99.90
3488;DHT22;38546;48.170;11.724;2022-09-12T00:41:54;11.70;99.90
3488;DHT22;38546;48.170;11.724;2022-09-12T00:44:47;11.70;99.90
3488;DHT22;38546;48.170;11.724;2022-09-12T00:47:38;11.60;99.90
3488;DHT22;38546;48.170;11.724;2022-09-12T00:50:28;11.60;99.90
3488;DHT22;38546;48.170;11.724;2022-09-12T00:53:19;11.60;99.90
3488;DHT22;38546;48.170;11.724;2022-09-12T00:56:09;11.60;99.90
3488;DHT22;38546;48.170;11.724;2022-09-12T00:59:11;11.50;99.90
3488;DHT22;38546;48.170;11.724;2022-09-12T01:02:03;11.50;99.90
3488;DHT22;38546;48.170;11.724;2022-09-12T01:04:53;11.50;99.90
3488;DHT22;38546;48.170;11.724;2022-09-12T01:07:44;11.50;99.90
3488;DHT22;38546;48.170;11.724;2022-09-12T01:10:38;11.50;99.90
3488;DHT22;38546;48.170;11.724;2022-09-12T01:13:29;11.50;99.90
3488;DHT22;38546;48.170;11.724;2022-09-12T01:16:18;11.40;99.90
3488;DHT22;38546;48.170;11.724;2022-09-12T01:19:48;11.40;99.90
3488;DHT22;38546;48.170;11.724;2022-09-12T01:34:44;11.30;99.90
3488;DHT22;38546;48.170;11.724;2022-09-12T01:42:21;11.30;99.90
3488;DHT22;38546;48.170;11.724;2022-09-12T01:46:55;11.20;99.90
3488;DHT22;38546;48.170;11.724;2022-09-12T01:50:27;11.20;99.90
3488;DHT22;38546;48.170;11.724;2022-09-12T01:53:28;11.20;99.90
3488;DHT22;38546;48.170;11.724;2022-09-12T01:56:26;11.20;99.90
3488;DHT22;38546;48.170;11.724;2022-09-12T01:59:25;11.20;99.90
3488;DHT22;38546;48.170;11.724;2022-09-12T02:02:22;11.10;99.90
3488;DHT22;38546;48.170;11.724;2022-09-12T02:05:32;11.10;99.90
3488;DHT22;38546;48.170;11.724;2022-09-12T02:08:31;11.10;99.90
3488;DHT22;38546;48.170;11.724;2022-09-12T02:11:58;11.10;99.90
3488;DHT22;38546;48.170;11.724;2022-09-12T02:14:52;11.00;99.90
3488;DHT22;38546;48.170;11.724;2022-09-12T02:17:51;11.00;99.90
3488;DHT22;38546;48.170;11.724;2022-09-12T02:20:42;11.00;99.90
3488;DHT22;38546;48.170;11.724;2022-09-12T02:23:45;11.00;99.90
3488;DHT22;38546;48.170;11.724;2022-09-12T02:26:54;11.00;99.90
3488;DHT22;38546;48.170;11.724;2022-09-12T02:29:47;10.90;99.90
3488;DHT22;38546;48.170;11.724;2022-09-12T02:33:05;10.90;99.90
3488;DHT22;38546;48.170;11.724;2022-09-12T02:36:17;10.90;99.90
3488;DHT22;38546;48.170;11.724;2022-09-12T02:39:23;10.90;99.90
3488;DHT22;38546;48.170;11.724;2022-09-12T02:42:13;10.80;99.90
3488;DHT22;38546;48.170;11.724;2022-09-12T02:45:03;10.80;99.90
3488;DHT22;38546;48.170;11.724;2022-09-12T02:48:10;10.80;99.90
3488;DHT22;38546;48.170;11.724;2022-09-12T02:51:03;10.70;99.90
3488;DHT22;38546;48.170;11.724;2022-09-12T02:53:53;10.70;99.90
3488;DHT22;38546;48.170;11.724;2022-09-12T02:56:44;10.70;99.90
3488;DHT22;38546;48.170;11.724;2022-09-12T02:59:34;10.70;99.90
3488;DHT22;38546;48.170;11.724;2022-09-12T03:21:39;10.60;99.90
3488;DHT22;38546;48.170;11.724;2022-09-12T03:24:59;10.60;99.90
3488;DHT22;38546;48.170;11.724;2022-09-12T03:28:14;10.50;99.90
3488;DHT22;38546;48.170;11.724;2022-09-12T03:31:15;10.50;99.90
3488;DHT22;38546;48.170;11.724;2022-09-12T03:34:05;10.50;99.90
3488;DHT22;38546;48.170;11.724;2022-09-12T03:37:01;10.50;99.90
3488;DHT22;38546;48.170;11.724;2022-09-12T03:39:52;10.50;99.90
3488;DHT22;38546;48.170;11.724;2022-09-12T03:42:41;10.50;99.90
3488;DHT22;38546;48.170;11.724;2022-09-12T03:45:31;10.40;99.90
3488;DHT22;38546;48.170;11.724;2022-09-12T03:48:20;10.40;99.90
3488;DHT22;38546;48.170;11.724;2022-09-12T03:51:11;10.40;99.90
3488;DHT22;38546;48.170;11.724;2022-09-12T03:54:00;10.30;99.90
3488;DHT22;38546;48.170;11.724;2022-09-12T03:56:50;10.30;99.90
3488;DHT22;38546;48.170;11.724;2022-09-12T03:59:39;10.30;99.90
3488;DHT22;38546;48.170;11.724;2022-09-12T04:02:28;10.20;99.90
3488;DHT22;38546;48.170;11.724;2022-09-12T04:05:17;10.20;99.90
3488;DHT22;38546;48.170;11.724;2022-09-12T04:08:07;10.20;99.90
3488;DHT22;38546;48.170;11.724;2022-09-12T04:11:04;10.20;99.90
3488;DHT22;38546;48.170;11.724;2022-09-12T04:13:55;10.20;99.90
3488;DHT22;38546;48.170;11.724;2022-09-12T04:16:44;10.10;99.90
3488;DHT22;38546;48.170;11.724;2022-09-12T04:19:33;10.10;99.90
3488;DHT22;38546;48.170;11.724;2022-09-12T04:22:22;10.10;99.90
3488;DHT22;38546;48.170;11.724;2022-09-12T04:25:11;10.10;99.90
3488;DHT22;38546;48.170;11.724;2022-09-12T04:28:01;10.10;99.90
3488;DHT22;38546;48.170;11.724;2022-09-12T04:30:51;10.00;99.90
3488;DHT22;38546;48.170;11.724;2022-09-12T04:33:40;10.00;99.90
3488;DHT22;38546;48.170;11.724;2022-09-12T04:36:30;10.00;99.90
3488;DHT22;38546;48.170;11.724;2022-09-12T04:39:21;10.00;99.90
3488;DHT22;38546;48.170;11.724;2022-09-12T04:42:11;10.00;99.90
3488;DHT22;38546;48.170;11.724;2022-09-12T04:45:01;10.00;99.90
3488;DHT22;38546;48.170;11.724;2022-09-12T04:47:51;10.00;99.90
3488;DHT22;38546;48.170;11.724;2022-09-12T04:50:41;10.00;99.90
3488;DHT22;38546;48.170;11.724;2022-09-12T04:53:30;10.00;99.90
3488;DHT22;38546;48.170;11.724;2022-09-12T04:56:20;10.00;99.90
3488;DHT22;38546;48.170;11.724;2022-09-12T04:59:11;10.00;99.90
3488;DHT22;38546;48.170;11.724;2022-09-12T05:02:03;9.90;99.90
3488;DHT22;38546;48.170;11.724;2022-09-12T05:04:53;9.90;99.90
3488;DHT22;38546;48.170;11.724;2022-09-12T05:07:43;9.90;99.90
3488;DHT22;38546;48.170;11.724;2022-09-12T05:10:33;9.90;99.90
3488;DHT22;38546;48.170;11.724;2022-09-12T05:13:22;9.90;99.90
3488;DHT22;38546;48.170;11.724;2022-09-12T05:16:13;9.90;99.90
3488;DHT22;38546;48.170;11.724;2022-09-12T05:19:04;10.00;99.90
3488;DHT22;38546;48.170;11.724;2022-09-12T05:21:54;10.00;99.90
3488;DHT22;38546;48.170;11.724;2022-09-12T05:24:44;10.00;99.90
3488;DHT22;38546;48.170;11.724;2022-09-12T05:27:34;10.10;99.90
3488;DHT22;38546;48.170;11.724;2022-09-12T05:30:23;10.10;99.90
3488;DHT22;38546;48.170;11.724;2022-09-12T05:33:13;10.10;99.90
3488;DHT22;38546;48.170;11.724;2022-09-12T05:36:05;10.20;99.90
3488;DHT22;38546;48.170;11.724;2022-09-12T05:38:55;10.20;99.90
3488;DHT22;38546;48.170;11.724;2022-09-12T05:41:47;10.30;99.90
3488;DHT22;38546;48.170;11.724;2022-09-12T05:44:37;10.40;99.90
3488;DHT22;38546;48.170;11.724;2022-09-12T05:47:26;10.40;99.90
3488;DHT22;38546;48.170;11.724;2022-09-12T05:50:15;10.50;99.90
3488;DHT22;38546;48.170;11.724;2022-09-12T05:53:05;10.50;99.90
3488;DHT22;38546;48.170;11.724;2022-09-12T05:56:10;10.60;99.90
3488;DHT22;38546;48.170;11.724;2022-09-12T05:59:03;10.60;99.90
3488;DHT22;38546;48.170;11.724;2022-09-12T06:01:54;10.70;99.90
3488;DHT22;38546;48.170;11.724;2022-09-12T06:04:43;10.80;99.90
3488;DHT22;38546;48.170;11.724;2022-09-12T06:07:33;10.80;99.90
3488;DHT22;38546;48.170;11.724;2022-09-12T06:10:23;10.90;99.90
3488;DHT22;38546;48.170;11.724;2022-09-12T06:13:14;11.00;99.90
3488;DHT22;38546;48.170;11.724;2022-09-12T06:16:12;11.10;99.90
3488;DHT22;38546;48.170;11.724;2022-09-12T06:19:14;11.20;99.90
3488;DHT22;38546;48.170;11.724;2022-09-12T06:22:05;11.30;99.90
3488;DHT22;38546;48.170;11.724;2022-09-12T06:24:55;11.40;99.90
3488;DHT22;38546;48.170;11.724;2022-09-12T06:27:44;11.60;99.90
3488;DHT22;38546;48.170;11.724;2022-09-12T06:30:36;11.70;99.90
3488;DHT22;38546;48.170;11.724;2022-09-12T06:33:24;11.80;99.90
3488;DHT22;38546;48.170;11.724;2022-09-12T06:36:23;12.00;99.90
3488;DHT22;38546;48.170;11.724;2022-09-12T06:39:15;12.20;99.90
3488;DHT22;38546;48.170;11.724;2022-09-12T06:42:05;12.50;99.90
3488;DHT22;38546;48.170;11.724;2022-09-12T06:44:55;12.60;99.90
3488;DHT22;38546;48.170;11.724;2022-09-12T06:47:44;12.80;99.90
3488;DHT22;38546;48.170;11.724;2022-09-12T06:50:34;13.10;99.90
3488;DHT22;38546;48.170;11.724;2022-09-12T06:53:24;13.30;99.90
3488;DHT22;38546;48.170;11.724;2022-09-12T06:56:19;13.60;99.90
3488;DHT22;38546;48.170;11.724;2022-09-12T06:59:10;13.80;99.90
3488;DHT22;38546;48.170;11.724;2022-09-12T07:02:00;14.00;99.90
3488;DHT22;38546;48.170;11.724;2022-09-12T07:04:50;14.20;99.90
3488;DHT22;38546;48.170;11.724;2022-09-12T07:07:40;14.30;99.90
3488;DHT22;38546;48.170;11.724;2022-09-12T07:10:29;14.50;99.90
3488;DHT22;38546;48.170;11.724;2022-09-12T07:13:19;14.70;99.90
3488;DHT22;38546;48.170;11.724;2022-09-12T07:16:09;14.90;99.90
3488;DHT22;38546;48.170;11.724;2022-09-12T07:19:00;15.10;99.90
3488;DHT22;38546;48.170;11.724;2022-09-12T07:21:50;15.30;99.90
3488;DHT22;38546;48.170;11.724;2022-09-12T07:24:40;15.60;99.90
3488;DHT22;38546;48.170;11.724;2022-09-12T07:27:29;15.70;99.90
3488;DHT22;38546;48.170;11.724;2022-09-12T07:30:19;15.90;99.90
3488;DHT22;38546;48.170;11.724;2022-09-12T07:33:08;16.10;99.90
3488;DHT22;38546;48.170;11.724;2022-09-12T07:36:06;16.10;99.90
3488;DHT22;38546;48.170;11.724;2022-09-12T07:38:56;16.20;99.90
3488;DHT22;38546;48.170;11.724;2022-09-12T07:41:46;16.30;99.90
3488;DHT22;38546;48.170;11.724;2022-09-12T07:44:35;16.40;99.90
3488;DHT22;38546;48.170;11.724;2022-09-12T07:47:25;16.40;99.90
3488;DHT22;38546;48.170;11.724;2022-09-12T07:50:14;16.50;99.90
3488;DHT22;38546;48.170;11.724;2022-09-12T07:53:04;16.70;99.90
3488;DHT22;38546;48.170;11.724;2022-09-12T07:55:55;16.80;99.90
3488;DHT22;38546;48.170;11.724;2022-09-12T07:58:45;17.00;99.90
3488;DHT22;38546;48.170;11.724;2022-09-12T08:01:35;17.10;99.90
3488;DHT22;38546;48.170;11.724;2022-09-12T08:04:24;17.10;99.90
3488;DHT22;38546;48.170;11.724;2022-09-12T08:07:13;17.20;99.90
3488;DHT22;38546;48.170;11.724;2022-09-12T08:10:04;17.40;99.90
3488;DHT22;38546;48.170;11.724;2022-09-12T08:12:54;17.60;99.90
3488;DHT22;38546;48.170;11.724;2022-09-12T08:15:44;17.80;99.90
3488;DHT22;38546;48.170;11.724;2022-09-12T08:18:35;17.70;99.90
3488;DHT22;38546;48.170;11.724;2022-09-12T08:21:27;17.80;99.90
3488;DHT22;38546;48.170;11.724;2022-09-12T08:24:18;17.80;99.90
3488;DHT22;38546;48.170;11.724;2022-09-12T08:27:07;17.80;99.90
3488;DHT22;38546;48.170;11.724;2022-09-12T08:29:57;17.90;99.90
3488;DHT22;38546;48.170;11.724;2022-09-12T08:32:46;18.00;99.90
3488;DHT22;38546;48.170;11.724;2022-09-12T08:35:35;18.20;99.90
3488;DHT22;38546;48.170;11.724;2022-09-12T08:38:25;18.30;99.90
3488;DHT22;38546;48.170;11.724;2022-09-12T08:41:42;18.40;99.90
3488;DHT22;38546;48.170;11.724;2022-09-12T08:45:09;18.50;99.90
3488;DHT22;38546;48.170;11.724;2022-09-12T08:48:04;18.50;99.90
3488;DHT22;38546;48.170;11.724;2022-09-12T08:50:54;18.50;99.90
3488;DHT22;38546;48.170;11.724;2022-09-12T08:53:44;18.60;99.90
3488;DHT22;38546;48.170;11.724;2022-09-12T08:56:36;18.80;99.90
3488;DHT22;38546;48.170;11.724;2022-09-12T08:59:34;18.90;99.90
3488;DHT22;38546;48.170;11.724;2022-09-12T09:04:49;19.10;99.90
3488;DHT22;38546;48.170;11.724;2022-09-12T09:17:07;19.20;99.90
3488;DHT22;38546;48.170;11.724;2022-09-12T12:10:24;20.70;99.90
3488;DHT22;38546;48.170;11.724;2022-09-12T12:13:50;20.70;99.90
3488;DHT22;38546;48.170;11.724;2022-09-12T12:16:42;20.60;99.90
3488;DHT22;38546;48.170;11.724;2022-09-12T12:19:34;20.80;99.90
3488;DHT22;38546;48.170;11.724;2022-09-12T12:22:25;20.90;99.90
3488;DHT22;38546;48.170;11.724;2022-09-12T12:25:37;20.90;99.90
3488;DHT22;38546;48.170;11.724;2022-09-12T12:28:57;21.00;99.90
3488;DHT22;38546;48.170;11.724;2022-09-12T12:38:25;21.20;99.90
3488;DHT22;38546;48.170;11.724;2022-09-12T12:42:02;21.30;99.90
3488;DHT22;38546;48.170;11.724;2022-09-12T12:44:51;21.20;99.90
3488;DHT22;38546;48.170;11.724;2022-09-12T12:47:43;21.20;99.90
3488;DHT22;38546;48.170;11.724;2022-09-12T12:50:41;21.30;99.90
3488;DHT22;38546;48.170;11.724;2022-09-12T12:53:30;21.30;99.90
3488;DHT22;38546;48.170;11.724;2022-09-12T12:56:39;21.40;99.90
3488;DHT22;38546;48.170;11.724;2022-09-12T12:59:30;21.40;99.90
3488;DHT22;38546;48.170;11.724;2022-09-12T13:02:35;21.20;99.90
3488;DHT22;38546;48.170;11.724;2022-09-12T13:05:30;21.40;99.90
3488;DHT22;38546;48.170;11.724;2022-09-12T13:08:35;21.40;99.90
3488;DHT22;38546;48.170;11.724;2022-09-12T13:11:39;21.40;99.90
3488;DHT22;38546;48.170;11.724;2022-09-12T13:21:26;21.70;99.90
3488;DHT22;38546;48.170;11.724;2022-09-12T13:24:59;21.70;99.90
3488;DHT22;38546;48.170;11.724;2022-09-12T13:28:13;21.70;99.90
3488;DHT22;38546;48.170;11.724;2022-09-12T13:31:27;21.90;99.90
3488;DHT22;38546;48.170;11.724;2022-09-12T13:34:21;22.00;99.90
3488;DHT22;38546;48.170;11.724;2022-09-12T13:37:33;21.90;99.90
3488;DHT22;38546;48.170;11.724;2022-09-12T13:40:59;21.90;99.80
3488;DHT22;38546;48.170;11.724;2022-09-12T13:43:59;21.80;99.90
3488;DHT22;38546;48.170;11.724;2022-09-12T13:46:50;21.80;99.90
3488;DHT22;38546;48.170;11.724;2022-09-12T13:49:42;21.80;99.90
3488;DHT22;38546;48.170;11.724;2022-09-12T13:52:34;21.80;99.90
3488;DHT22;38546;48.170;11.724;2022-09-12T13:55:35;21.80;99.90
3488;DHT22;38546;48.170;11.724;2022-09-12T13:58:30;21.70;99.90
3488;DHT22;38546;48.170;11.724;2022-09-12T14:01:23;21.70;99.70
3488;DHT22;38546;48.170;11.724;2022-09-12T14:04:25;21.90;99.30
3488;DHT22;38546;48.170;11.724;2022-09-12T14:07:45;21.80;99.00
3488;DHT22;38546;48.170;11.724;2022-09-12T14:10:44;21.80;99.50
3488;DHT22;38546;48.170;11.724;2022-09-12T14:13:35;21.90;99.30
3488;DHT22;38546;48.170;11.724;2022-09-12T14:16:39;22.00;98.90
3488;DHT22;38546;48.170;11.724;2022-09-12T14:19:28;22.20;99.00
3488;DHT22;38546;48.170;11.724;2022-09-12T14:22:19;22.10;98.70
3488;DHT22;38546;48.170;11.724;2022-09-12T14:25:17;22.30;97.90
3488;DHT22;38546;48.170;11.724;2022-09-12T14:28:12;22.00;98.40
3488;DHT22;38546;48.170;11.724;2022-09-12T14:31:23;21.90;99.90
3488;DHT22;38546;48.170;11.724;2022-09-12T14:34:17;21.90;99.10
3488;DHT22;38546;48.170;11.724;2022-09-12T14:37:07;21.90;98.60
3488;DHT22;38546;48.170;11.724;2022-09-12T14:39:57;22.10;99.20
3488;DHT22;38546;48.170;11.724;2022-09-12T14:42:50;22.20;97.70
3488;DHT22;38546;48.170;11.724;2022-09-12T14:45:41;22.10;98.60
3488;DHT22;38546;48.170;11.724;2022-09-12T14:48:34;22.20;98.10
3488;DHT22;38546;48.170;11.724;2022-09-12T14:51:29;22.20;97.90
3488;DHT22;38546;48.170;11.724;2022-09-12T14:55:00;22.20;98.40
3488;DHT22;38546;48.170;11.724;2022-09-12T15:01:23;22.00;98.60
3488;DHT22;38546;48.170;11.724;2022-09-12T15:04:37;22.10;98.80
3488;DHT22;38546;48.170;11.724;2022-09-12T15:07:35;22.10;98.40
3488;DHT22;38546;48.170;11.724;2022-09-12T15:10:30;22.10;98.70
3488;DHT22;38546;48.170;11.724;2022-09-12T15:13:25;22.00;99.90
3488;DHT22;38546;48.170;11.724;2022-09-12T15:16:16;22.10;99.50
3488;DHT22;38546;48.170;11.724;2022-09-12T15:19:06;21.90;99.90
3488;DHT22;38546;48.170;11.724;2022-09-12T15:21:55;21.80;99.90
3488;DHT22;38546;48.170;11.724;2022-09-12T15:24:46;21.80;99.90
3488;DHT22;38546;48.170;11.724;2022-09-12T15:27:35;21.60;99.90
3488;DHT22;38546;48.170;11.724;2022-09-12T15:30:28;21.80;99.90
3488;DHT22;38546;48.170;11.724;2022-09-12T15:33:19;21.60;99.90
3488;DHT22;38546;48.170;11.724;2022-09-12T15:36:16;21.70;99.90
3488;DHT22;38546;48.170;11.724;2022-09-12T15:39:08;21.70;99.90
3488;DHT22;38546;48.170;11.724;2022-09-12T15:41:58;21.90;99.90
3488;DHT22;38546;48.170;11.724;2022-09-12T15:44:48;21.90;99.90
3488;DHT22;38546;48.170;11.724;2022-09-12T15:47:38;22.00;99.90
3488;DHT22;38546;48.170;11.724;2022-09-12T15:50:27;22.00;99.90
3488;DHT22;38546;48.170;11.724;2022-09-12T15:53:17;21.80;99.90
3488;DHT22;38546;48.170;11.724;2022-09-12T15:56:06;21.80;99.90
3488;DHT22;38546;48.170;11.724;2022-09-12T15:58:56;21.90;99.90
3488;DHT22;38546;48.170;11.724;2022-09-12T16:01:45;21.60;99.90
3488;DHT22;38546;48.170;11.724;2022-09-12T16:04:34;21.60;99.90
3488;DHT22;38546;48.170;11.724;2022-09-12T16:07:24;21.70;99.90
3488;DHT22;38546;48.170;11.724;2022-09-12T16:10:18;21.70;99.90
3488;DHT22;38546;48.170;11.724;2022-09-12T16:13:09;21.60;99.90
3488;DHT22;38546;48.170;11.724;2022-09-12T16:15:58;21.60;99.90
3488;DHT22;38546;48.170;11.724;2022-09-12T16:18:49;21.60;99.90
3488;DHT22;38546;48.170;11.724;2022-09-12T16:21:38;21.40;99.90
3488;DHT22;38546;48.170;11.724;2022-09-12T16:24:27;21.20;99.90
3488;DHT22;38546;48.170;11.724;2022-09-12T16:27:17;21.10;99.90
3488;DHT22;38546;48.170;11.724;2022-09-12T16:30:08;21.20;99.90
3488;DHT22;38546;48.170;11.724;2022-09-12T16:32:58;21.00;99.90
3488;DHT22;38546;48.170;11.724;2022-09-12T16:35:48;20.90;99.90
3488;DHT22;38546;48.170;11.724;2022-09-12T16:38:44;20.80;99.90
3488;DHT22;38546;48.170;11.724;2022-09-12T16:41:37;20.80;99.90
3488;DHT22;38546;48.170;11.724;2022-09-12T16:44:30;20.60;99.90
3488;DHT22;38546;48.170;11.724;2022-09-12T16:47:20;20.60;99.90
3488;DHT22;38546;48.170;11.724;2022-09-12T16:50:10;20.50;99.90
3488;DHT22;38546;48.170;11.724;2022-09-12T16:52:59;20.50;99.90
3488;DHT22;38546;48.170;11.724;2022-09-12T16:55:49;20.40;99.90
3488;DHT22;38546;48.170;11.724;2022-09-12T16:58:40;20.50;99.90
3488;DHT22;38546;48.170;11.724;2022-09-12T17:01:30;20.40;99.90
3488;DHT22;38546;48.170;11.724;2022-09-12T17:04:21;20.30;99.90
3488;DHT22;38546;48.170;11.724;2022-09-12T17:07:11;20.20;99.90
3488;DHT22;38546;48.170;11.724;2022-09-12T17:10:01;20.20;99.90
3488;DHT22;38546;48.170;11.724;2022-09-12T17:12:50;20.10;99.90
3488;DHT22;38546;48.170;11.724;2022-09-12T17:15:39;20.00;99.90
3488;DHT22;38546;48.170;11.724;2022-09-12T17:18:29;19.90;99.90
3488;DHT22;38546;48.170;11.724;2022-09-12T17:21:19;19.80;99.90
3488;DHT22;38546;48.170;11.724;2022-09-12T17:24:09;19.70;99.90
3488;DHT22;38546;48.170;11.724;2022-09-12T17:26:58;19.70;99.90
3488;DHT22;38546;48.170;11.724;2022-09-12T17:29:47;19.60;99.90
3488;DHT22;38546;48.170;11.724;2022-09-12T17:32:37;19.50;99.90
3488;DHT22;38546;48.170;11.724;2022-09-12T17:35:26;19.50;99.90
3488;DHT22;38546;48.170;11.724;2022-09-12T17:38:16;19.50;99.90
3488;DHT22;38546;48.170;11.724;2022-09-12T17:41:08;19.40;99.90
3488;DHT22;38546;48.170;11.724;2022-09-12T17:44:00;19.30;99.90
3488;DHT22;38546;48.170;11.724;2022-09-12T17:46:51;19.10;99.90
3488;DHT22;38546;48.170;11.724;2022-09-12T17:49:40;19.00;99.90
3488;DHT22;38546;48.170;11.724;2022-09-12T17:52:29;18.90;99.90
3488;DHT22;38546;48.170;11.724;2022-09-12T17:55:19;18.80;99.90
3488;DHT22;38546;48.170;11.724;2022-09-12T17:58:09;18.70;99.90
3488;DHT22;38546;48.170;11.724;2022-09-12T18:01:13;18.60;99.90
3488;DHT22;38546;48.170;11.724;2022-09-12T18:04:22;18.60;99.90
3488;DHT22;38546;48.170;11.724;2022-09-12T18:07:12;18.50;99.90
3488;DHT22;38546;48.170;11.724;2022-09-12T18:10:02;18.30;99.90
3488;DHT22;38546;48.170;11.724;2022-09-12T18:12:52;18.20;99.90
3488;DHT22;38546;48.170;11.724;2022-09-12T18:15:41;18.10;99.90
3488;DHT22;38546;48.170;11.724;2022-09-12T18:18:32;18.00;99.90
3488;DHT22;38546;48.170;11.724;2022-09-12T18:21:22;17.90;99.90
3488;DHT22;38546;48.170;11.724;2022-09-12T18:24:11;17.80;99.90
3488;DHT22;38546;48.170;11.724;2022-09-12T18:27:01;17.70;99.90
3488;DHT22;38546;48.170;11.724;2022-09-12T18:29:51;17.60;99.90
3488;DHT22;38546;48.170;11.724;2022-09-12T18:32:40;17.50;99.90
3488;DHT22;38546;48.170;11.724;2022-09-12T18:35:29;17.40;99.90
3488;DHT22;38546;48.170;11.724;2022-09-12T18:38:20;17.30;99.90
3488;DHT22;38546;48.170;11.724;2022-09-12T18:41:15;17.30;99.90
3488;DHT22;38546;48.170;11.724;2022-09-12T18:44:06;17.20;99.90
3488;DHT22;38546;48.170;11.724;2022-09-12T18:46:55;17.20;99.90
3488;DHT22;38546;48.170;11.724;2022-09-12T18:49:45;17.20;99.90
3488;DHT22;38546;48.170;11.724;2022-09-12T18:52:34;17.10;99.90
3488;DHT22;38546;48.170;11.724;2022-09-12T18:55:23;17.10;99.90
3488;DHT22;38546;48.170;11.724;2022-09-12T18:58:13;17.10;99.90
3488;DHT22;38546;48.170;11.724;2022-09-12T19:01:15;17.00;99.90
3488;DHT22;38546;48.170;11.724;2022-09-12T19:04:11;17.00;99.90
3488;DHT22;38546;48.170;11.724;2022-09-12T19:07:01;16.90;99.90
3488;DHT22;38546;48.170;11.724;2022-09-12T19:09:50;16.80;99.90
3488;DHT22;38546;48.170;11.724;2022-09-12T19:12:39;16.80;99.90
3488;DHT22;38546;48.170;11.724;2022-09-12T19:15:28;16.80;99.90
3488;DHT22;38546;48.170;11.724;2022-09-12T19:18:18;16.80;99.90
3488;DHT22;38546;48.170;11.724;2022-09-12T19:21:12;16.70;99.90
3488;DHT22;38546;48.170;11.724;2022-09-12T19:24:05;16.70;99.90
3488;DHT22;38546;48.170;11.724;2022-09-12T19:26:58;16.70;99.90
3488;DHT22;38546;48.170;11.724;2022-09-12T19:29:47;16.70;99.90
3488;DHT22;38546;48.170;11.724;2022-09-12T19:32:36;16.60;99.90
3488;DHT22;38546;48.170;11.724;2022-09-12T19:35:25;16.60;99.90
3488;DHT22;38546;48.170;11.724;2022-09-12T19:38:13;16.60;99.90
3488;DHT22;38546;48.170;11.724;2022-09-12T19:41:05;16.60;99.90
3488;DHT22;38546;48.170;11.724;2022-09-12T19:43:56;16.50;99.90
3488;DHT22;38546;48.170;11.724;2022-09-12T19:46:45;16.50;99.90
3488;DHT22;38546;48.170;11.724;2022-09-12T19:49:34;16.40;99.90
3488;DHT22;38546;48.170;11.724;2022-09-12T19:52:23;16.40;99.90
3488;DHT22;38546;48.170;11.724;2022-09-12T19:55:12;16.40;99.90
3488;DHT22;38546;48.170;11.724;2022-09-12T19:58:02;16.40;99.90
3488;DHT22;38546;48.170;11.724;2022-09-12T20:00:54;16.30;99.90
3488;DHT22;38546;48.170;11.724;2022-09-12T20:03:44;16.30;99.90
3488;DHT22;38546;48.170;11.724;2022-09-12T20:06:34;16.30;99.90
3488;DHT22;38546;48.170;11.724;2022-09-12T20:09:24;16.30;99.90
3488;DHT22;38546;48.170;11.724;2022-09-12T20:12:13;16.20;99.90
3488;DHT22;38546;48.170;11.724;2022-09-12T20:15:03;16.20;99.90
3488;DHT22;38546;48.170;11.724;2022-09-12T20:17:54;16.10;99.90
3488;DHT22;38546;48.170;11.724;2022-09-12T20:20:43;16.00;99.90
3488;DHT22;38546;48.170;11.724;2022-09-12T20:23:32;16.00;99.90
3488;DHT22;38546;48.170;11.724;2022-09-12T20:26:22;15.90;99.90
3488;DHT22;38546;48.170;11.724;2022-09-12T20:29:12;15.90;99.90
3488;DHT22;38546;48.170;11.724;2022-09-12T20:32:02;15.70;99.90
3488;DHT22;38546;48.170;11.724;2022-09-12T20:34:51;15.70;99.90
3488;DHT22;38546;48.170;11.724;2022-09-12T20:37:39;15.60;99.90
3488;DHT22;38546;48.170;11.724;2022-09-12T20:40:28;15.60;99.90
3488;DHT22;38546;48.170;11.724;2022-09-12T20:43:18;15.60;99.90
3488;DHT22;38546;48.170;11.724;2022-09-12T20:46:09;15.50;99.90
3488;DHT22;38546;48.170;11.724;2022-09-12T20:48:59;15.40;99.90
3488;DHT22;38546;48.170;11.724;2022-09-12T20:51:48;15.30;99.90
3488;DHT22;38546;48.170;11.724;2022-09-12T20:54:38;15.20;99.90
3488;DHT22;38546;48.170;11.724;2022-09-12T20:57:27;15.20;99.90
3488;DHT22;38546;48.170;11.724;2022-09-12T21:00:17;15.10;99.90
3488;DHT22;38546;48.170;11.724;2022-09-12T21:03:07;15.00;99.90
3488;DHT22;38546;48.170;11.724;2022-09-12T21:05:56;15.00;99.90
3488;DHT22;38546;48.170;11.724;2022-09-12T21:08:47;14.90;99.90
3488;DHT22;38546;48.170;11.724;2022-09-12T21:11:37;14.80;99.90
3488;DHT22;38546;48.170;11.724;2022-09-12T21:14:26;14.80;99.90
3488;DHT22;38546;48.170;11.724;2022-09-12T21:17:15;14.70;99.90
3488;DHT22;38546;48.170;11.724;2022-09-12T21:20:04;14.70;99.90
3488;DHT22;38546;48.170;11.724;2022-09-12T21:22:53;14.60;99.90
3488;DHT22;38546;48.170;11.724;2022-09-12T21:25:42;14.60;99.90
3488;DHT22;38546;48.170;11.724;2022-09-12T21:28:31;14.60;99.90
3488;DHT22;38546;48.170;11.724;2022-09-12T21:31:20;14.50;99.90
3488;DHT22;38546;48.170;11.724;2022-09-12T21:34:09;14.50;99.90
3488;DHT22;38546;48.170;11.724;2022-09-12T21:36:58;14.50;99.90
3488;DHT22;38546;48.170;11.724;2022-09-12T21:39:47;14.40;99.90
3488;DHT22;38546;48.170;11.724;2022-09-12T21:42:36;14.40;99.90
3488;DHT22;38546;48.170;11.724;2022-09-12T21:45:25;14.40;99.90
3488;DHT22;38546;48.170;11.724;2022-09-12T21:48:15;14.30;99.90
3488;DHT22;38546;48.170;11.724;2022-09-12T21:51:05;14.30;99.90
3488;DHT22;38546;48.170;11.724;2022-09-12T21:53:54;14.30;99.90
3488;DHT22;38546;48.170;11.724;2022-09-12T21:56:44;14.20;99.90
3488;DHT22;38546;48.170;11.724;2022-09-12T21:59:33;14.20;99.90
3488;DHT22;38546;48.170;11.724;2022-09-12T22:02:24;14.10;99.90
3488;DHT22;38546;48.170;11.724;2022-09-12T22:05:16;14.10;99.90
3488;DHT22;38546;48.170;11.724;2022-09-12T22:08:09;14.10;99.90
3488;DHT22;38546;48.170;11.724;2022-09-12T22:11:01;14.00;99.90